Time;durP1;ratioP1;P1;durP2;ratioP2;P2;SDS_P1;SDS_P2;PMS_P1;PMS_P2;Temp;Humidity;BMP_temperature;BMP_pressure;BME280_temperature;BME280_humidity;BME280_pressure;Samples;Min_cycle;Max_cycle;Signal;HPM_P1;HPM_P2
2022/02/03 00:00:37;;;;;;;;;;;;;;;13.24;46.05;101111.19;4981423;27;98395;-63
2022/02/03 00:03:20;;;;;;;;;;;;;;;13.23;46.26;101114.16;4980594;27;97675;-62
2022/02/03 00:06:00;;;;;;;;;;;;;;;13.22;46.36;101116.03;4978946;27;98388;-56
2022/02/03 00:11:25;;;;;;;;;;;;;;;13.20;46.17;101120.91;4977270;27;98157;-63
2022/02/03 00:22:14;;;;;;;;;;;;;;;13.16;46.26;101129.81;4979307;28;97879;-56
2022/02/03 00:27:47;;;;;;;;;;;;;;;13.14;46.48;101129.28;4978185;27;97921;-56
2022/02/03 00:30:16;;;;;;;;;;;;;;;13.13;46.22;101124.97;4979566;28;98675;-63
2022/02/03 00:38:04;;;;;;;;;;;;;;;13.11;46.33;101130.63;4979353;27;97919;-55
2022/02/03 00:51:17;;;;;;;;;;;;;;;13.07;46.19;101142.25;4978426;27;98240;-62
2022/02/03 00:53:43;;;;;;;;;;;;;;;13.05;46.33;101147.94;4977957;28;97890;-56
2022/02/03 00:56:13;;;;;;;;;;;;;;;13.04;46.33;101149.00;4977466;27;97901;-62
2022/02/03 00:58:52;;;;;;;;;;;;;;;13.04;46.26;101165.25;4977072;28;111793;-55
2022/02/03 01:01:19;;;;;;;;;;;;;;;13.02;46.21;101153.88;4979930;27;98506;-63
2022/02/03 01:03:49;;;;;;;;;;;;;;;13.03;46.21;101163.63;4978889;27;114265;-63
2022/02/03 01:06:15;;;;;;;;;;;;;;;13.02;46.24;101162.81;4977747;28;108973;-56
2022/02/03 01:08:46;;;;;;;;;;;;;;;13.02;46.32;101176.34;4977486;28;99250;-56
2022/02/03 01:11:21;;;;;;;;;;;;;;;13.01;46.42;101176.63;4979430;28;98917;-63
2022/02/03 01:13:53;;;;;;;;;;;;;;;13.01;46.34;101177.44;4977096;28;99163;-56
2022/02/03 01:19:27;;;;;;;;;;;;;;;12.98;46.24;101177.97;4976300;28;97763;-62
2022/02/03 01:44:25;;;;;;;;;;;;;;;12.89;46.17;101192.25;5006264;27;97903;-63
2022/02/03 01:47:08;;;;;;;;;;;;;;;12.88;46.35;101191.44;4982790;27;98135;-63
2022/02/03 01:52:35;;;;;;;;;;;;;;;12.88;46.45;101185.22;4962367;28;98120;-63
2022/02/03 01:55:03;;;;;;;;;;;;;;;12.87;46.33;101192.53;4980530;27;98423;-56
2022/02/03 01:57:58;;;;;;;;;;;;;;;12.86;46.41;101176.56;4982120;27;97970;-63
2022/02/03 02:00:24;;;;;;;;;;;;;;;12.86;46.29;101179.28;4963368;27;97897;-63
2022/02/03 02:03:09;;;;;;;;;;;;;;;12.86;46.24;101179.28;4982770;27;106437;-56
2022/02/03 02:05:53;;;;;;;;;;;;;;;12.83;46.17;101171.69;4982181;27;99014;-63
2022/02/03 02:08:40;;;;;;;;;;;;;;;12.84;46.25;101174.13;4981938;28;97893;-62
2022/02/03 02:11:31;;;;;;;;;;;;;;;12.84;46.10;101174.13;4982298;27;100287;-57
2022/02/03 02:14:46;;;;;;;;;;;;;;;12.83;46.37;101167.09;4980830;28;99310;-63
2022/02/03 02:39:13;;;;;;;;;;;;;;;12.77;46.34;101165.44;4978323;28;98021;-55
2022/02/03 02:45:00;;;;;;;;;;;;;;;12.75;46.32;101159.47;4960143;28;97902;-55
2022/02/03 02:47:49;;;;;;;;;;;;;;;12.73;46.04;101153.50;4973092;28;99273;-55
2022/02/03 02:50:21;;;;;;;;;;;;;;;12.71;46.16;101148.38;4960235;27;98186;-63
2022/02/03 02:58:57;;;;;;;;;;;;;;;12.71;46.21;101150.28;4977314;28;98722;-62
2022/02/03 03:02:08;;;;;;;;;;;;;;;12.70;46.08;101148.66;4981921;28;98764;-55
2022/02/03 03:35:06;;;;;;;;;;;;;;;12.68;46.27;101129.16;4963773;28;98292;-56
2022/02/03 03:37:45;;;;;;;;;;;;;;;12.68;46.19;101121.84;4980851;27;97913;-54
2022/02/03 03:40:11;;;;;;;;;;;;;;;12.69;46.15;101117.25;4981088;28;97661;-55
2022/02/03 03:42:39;;;;;;;;;;;;;;;12.68;46.13;101116.44;4980063;27;99446;-63
2022/02/03 03:45:07;;;;;;;;;;;;;;;12.70;46.05;101111.59;4980532;27;120004;-56
2022/02/03 03:47:34;;;;;;;;;;;;;;;12.71;46.08;101104.28;4979584;27;98507;-55
2022/02/03 03:50:11;;;;;;;;;;;;;;;12.71;46.16;101099.69;4981348;27;98112;-63
2022/02/03 03:52:45;;;;;;;;;;;;;;;12.72;46.10;101100.50;4981574;28;98870;-63
2022/02/03 03:55:20;;;;;;;;;;;;;;;12.73;46.10;101094.84;4976492;28;99660;-63
2022/02/03 04:28:43;;;;;;;;;;;;;;;12.74;46.19;101093.75;4977927;27;97876;-55
2022/02/03 04:30:51;;;;;;;;;;;;;;;12.81;46.18;101092.66;4977785;28;98366;-56
2022/02/03 04:33:46;;;;;;;;;;;;;;;12.82;46.13;101088.91;4977667;28;97986;-55
2022/02/03 04:59:35;;;;;;;;;;;;;;;12.82;46.27;101070.78;4975258;28;97785;-56
2022/02/03 05:02:40;;;;;;;;;;;;;;;12.84;46.03;101070.50;4978714;27;98806;-56
2022/02/03 05:09:44;;;;;;;;;;;;;;;12.84;46.18;101056.97;4961548;28;97962;-55
2022/02/03 05:11:56;;;;;;;;;;;;;;;12.86;46.15;101060.25;4974497;27;98025;-55
2022/02/03 05:15:28;;;;;;;;;;;;;;;12.85;46.04;101054.00;4982741;28;98227;-63
2022/02/03 05:44:56;;;;;;;;;;;;;;;12.92;46.38;101041.00;4977801;28;97898;-62
2022/02/03 06:00:44;;;;;;;;;;;;;;;12.96;46.32;101044.00;4976597;27;98252;-63
2022/02/03 06:09:19;;;;;;;;;;;;;;;13.02;46.20;101042.94;4975963;28;98151;-63
2022/02/03 06:22:43;;;;;;;;;;;;;;;13.06;45.83;101025.06;4978208;28;98099;-63
2022/02/03 06:27:37;;;;;;;;;;;;;;;13.08;46.23;101008.56;4980380;27;97800;-63
2022/02/03 06:30:04;;;;;;;;;;;;;;;13.09;46.15;101008.31;4982018;27;97707;-63
2022/02/03 06:32:30;;;;;;;;;;;;;;;13.11;46.37;101013.44;4980671;28;118396;-63
2022/02/03 06:34:56;;;;;;;;;;;;;;;13.11;46.11;101006.13;4980437;27;126890;-62
2022/02/03 06:37:22;;;;;;;;;;;;;;;13.13;46.60;101011.28;4981014;28;127590;-63
2022/02/03 06:39:48;;;;;;;;;;;;;;;13.14;46.27;101008.28;4981828;28;98489;-64
2022/02/03 06:42:14;;;;;;;;;;;;;;;13.17;46.07;101001.53;4980233;27;121062;-55
2022/02/03 06:44:48;;;;;;;;;;;;;;;13.17;46.32;100994.22;4981949;28;98605;-56
2022/02/03 06:50:20;;;;;;;;;;;;;;;13.21;46.12;100998.00;4946796;27;97968;-56
2022/02/03 06:57:48;;;;;;;;;;;;;;;13.26;46.10;101002.63;4978403;27;113047;-55
2022/02/03 07:00:20;;;;;;;;;;;;;;;13.28;46.25;100995.03;4981333;27;97890;-55
2022/02/03 07:02:48;;;;;;;;;;;;;;;13.30;46.13;100992.88;4980041;28;97969;-63
2022/02/03 07:05:14;;;;;;;;;;;;;;;13.33;46.08;100992.34;4981699;27;97762;-63
2022/02/03 07:07:41;;;;;;;;;;;;;;;13.35;46.11;100984.75;4981087;27;98261;-56
2022/02/03 07:10:09;;;;;;;;;;;;;;;13.38;45.95;100976.06;4980500;27;98130;-56
2022/02/03 07:12:35;;;;;;;;;;;;;;;13.42;45.75;100968.22;4980986;28;99021;-63
2022/02/03 07:15:03;;;;;;;;;;;;;;;13.46;46.20;100969.28;4981284;27;98198;-63
2022/02/03 07:17:29;;;;;;;;;;;;;;;13.53;45.71;100971.72;4980512;27;97968;-56
2022/02/03 07:20:00;;;;;;;;;;;;;;;13.58;45.64;100966.28;4980118;27;111643;-56
2022/02/03 07:22:26;;;;;;;;;;;;;;;13.63;45.84;100969.78;4980465;28;98486;-56
2022/02/03 07:24:52;;;;;;;;;;;;;;;13.69;45.78;100967.88;4977676;28;118569;-55
2022/02/03 07:27:21;;;;;;;;;;;;;;;13.75;45.79;100969.47;4978481;27;98067;-55
2022/02/03 07:29:48;;;;;;;;;;;;;;;13.83;45.48;100974.31;4979514;28;117680;-55
2022/02/03 07:32:14;;;;;;;;;;;;;;;13.90;45.33;100976.75;4979158;27;104277;-56
2022/02/03 07:34:40;;;;;;;;;;;;;;;13.95;45.55;100966.72;4979578;28;127872;-55
2022/02/03 07:37:06;;;;;;;;;;;;;;;14.03;45.36;100965.31;4979198;27;116521;-55
2022/02/03 07:39:33;;;;;;;;;;;;;;;14.11;45.65;100970.16;4977365;28;116718;-56
2022/02/03 07:41:59;;;;;;;;;;;;;;;14.18;45.26;100959.81;4979379;27;99029;-54
2022/02/03 07:44:26;;;;;;;;;;;;;;;14.25;45.70;100952.19;4980598;28;98708;-56
2022/02/03 07:46:52;;;;;;;;;;;;;;;14.33;45.61;100949.97;4979409;28;102245;-55
2022/02/03 07:49:18;;;;;;;;;;;;;;;14.39;45.27;100948.88;4979503;28;97955;-56
2022/02/03 07:51:44;;;;;;;;;;;;;;;14.45;45.45;100939.59;4978778;28;114730;-55
2022/02/03 07:54:10;;;;;;;;;;;;;;;14.49;45.42;100936.06;4980270;27;109392;-55
2022/02/03 07:56:36;;;;;;;;;;;;;;;14.54;45.63;100934.41;4980006;27;97866;-56
2022/02/03 07:59:02;;;;;;;;;;;;;;;14.55;45.38;100933.31;4980234;27;97849;-56
2022/02/03 08:01:28;;;;;;;;;;;;;;;14.54;45.77;100937.09;4979518;27;99944;-56
2022/02/03 08:03:55;;;;;;;;;;;;;;;14.52;45.63;100936.59;4979372;27;114732;-56
2022/02/03 08:06:26;;;;;;;;;;;;;;;14.49;45.61;100930.63;4979959;27;98102;-55
2022/02/03 08:08:58;;;;;;;;;;;;;;;14.47;45.88;100929.28;4980015;27;97801;-56
2022/02/03 08:11:30;;;;;;;;;;;;;;;14.45;45.74;100926.03;4980330;28;98434;-57
2022/02/03 08:14:06;;;;;;;;;;;;;;;14.44;45.70;100919.00;4979786;28;98917;-55
2022/02/03 08:16:51;;;;;;;;;;;;;;;14.46;45.71;100916.78;4979531;27;98048;-56
2022/02/03 08:21:47;;;;;;;;;;;;;;;14.58;46.01;100919.19;4978212;27;114208;-56
2022/02/03 08:26:59;;;;;;;;;;;;;;;14.70;45.82;100923.16;4977805;28;115042;-56
2022/02/03 08:32:03;;;;;;;;;;;;;;;14.83;45.88;100912.75;4978023;28;110194;-56
2022/02/03 08:37:15;;;;;;;;;;;;;;;15.02;45.79;100905.53;4979040;28;97763;-56
2022/02/03 08:40:11;;;;;;;;;;;;;;;15.14;45.29;100908.66;4979929;27;97867;-62
2022/02/03 08:42:30;;;;;;;;;;;;;;;15.29;45.47;100902.25;4981109;27;100379;-56
2022/02/03 08:44:56;;;;;;;;;;;;;;;15.46;45.10;100896.34;4979668;28;127004;-62
2022/02/03 08:47:21;;;;;;;;;;;;;;;15.66;45.12;100889.91;4978083;27;127962;-63
2022/02/03 08:49:47;;;;;;;;;;;;;;;15.94;44.83;100891.69;4979724;27;123137;-63
2022/02/03 08:52:23;;;;;;;;;;;;;;;16.15;44.71;100886.78;4979120;27;98652;-63
2022/02/03 08:55:01;;;;;;;;;;;;;;;16.39;44.32;100877.75;4976287;28;98956;-56
2022/02/03 08:57:43;;;;;;;;;;;;;;;16.72;44.12;100885.91;4980584;28;98392;-56
2022/02/03 09:00:34;;;;;;;;;;;;;;;16.98;44.11;100883.56;4979641;27;97784;-63
2022/02/03 09:32:40;;;;;;;;;;;;;;;18.90;44.22;100846.88;4975457;28;97997;-56
2022/02/03 09:39:03;;;;;;;;;;;;;;;19.81;43.74;100846.25;4976914;27;98203;-57
2022/02/03 09:42:01;;;;;;;;;;;;;;;19.77;43.85;100855.41;4979750;27;98100;-63
2022/02/03 09:58:10;;;;;;;;;;;;;;;19.25;44.69;100850.56;4978589;27;97881;-63
2022/02/03 10:00:57;;;;;;;;;;;;;;;19.22;44.92;100843.03;4981564;27;98529;-56
2022/02/03 10:03:36;;;;;;;;;;;;;;;19.45;44.59;100853.84;4983095;28;98230;-59
2022/02/03 10:08:33;;;;;;;;;;;;;;;19.65;44.45;100836.06;4978956;27;98892;-62
2022/02/03 10:11:21;;;;;;;;;;;;;;;19.69;44.50;100845.22;4982781;27;98763;-56
2022/02/03 10:13:57;;;;;;;;;;;;;;;19.56;44.67;100838.75;4981983;28;97777;-63
2022/02/03 10:16:28;;;;;;;;;;;;;;;19.39;45.10;100834.06;4982418;27;98504;-64
2022/02/03 10:19:17;;;;;;;;;;;;;;;19.24;45.33;100827.09;4981697;27;98634;-63
2022/02/03 10:21:44;;;;;;;;;;;;;;;19.10;45.42;100835.44;4981450;27;98278;-63
2022/02/03 10:24:15;;;;;;;;;;;;;;;19.02;45.56;100821.72;4982567;27;98235;-56
2022/02/03 10:26:45;;;;;;;;;;;;;;;18.88;45.78;100817.16;4982170;27;99475;-63
2022/02/03 10:29:13;;;;;;;;;;;;;;;18.76;46.04;100806.03;4982598;28;98891;-63
2022/02/03 10:31:42;;;;;;;;;;;;;;;18.69;45.90;100813.03;4981355;28;98531;-63
2022/02/03 10:34:11;;;;;;;;;;;;;;;18.63;46.21;100802.25;4981766;27;98655;-63
2022/02/03 10:37:11;;;;;;;;;;;;;;;18.62;46.01;100805.28;4980983;27;98796;-64
2022/02/03 10:40:07;;;;;;;;;;;;;;;18.52;46.30;100803.63;4982673;28;99293;-63
2022/02/03 10:48:05;;;;;;;;;;;;;;;18.25;46.54;100796.38;4981482;28;97816;-64
2022/02/03 10:51:12;;;;;;;;;;;;;;;18.08;46.86;100797.06;4979212;27;99749;-56
2022/02/03 11:06:38;;;;;;;;;;;;;;;17.35;47.77;100776.34;4978848;27;97749;-55
2022/02/03 11:11:34;;;;;;;;;;;;;;;17.15;47.92;100781.09;4979360;28;98617;-63
2022/02/03 11:14:00;;;;;;;;;;;;;;;17.07;47.99;100778.28;4980091;28;98640;-56
2022/02/03 11:16:26;;;;;;;;;;;;;;;17.02;48.11;100772.97;4977845;27;121056;-57
2022/02/03 11:18:52;;;;;;;;;;;;;;;16.97;48.02;100776.56;4980845;28;106366;-62
2022/02/03 11:21:18;;;;;;;;;;;;;;;16.91;48.26;100764.19;4978394;27;128171;-63
2022/02/03 11:23:59;;;;;;;;;;;;;;;16.86;48.13;100762.38;4980776;28;98990;-62
2022/02/03 11:26:33;;;;;;;;;;;;;;;16.82;48.13;100760.53;4964551;28;99603;-56
2022/02/03 11:37:05;;;;;;;;;;;;;;;16.63;48.59;100755.16;4980123;27;98008;-63
2022/02/03 11:39:57;;;;;;;;;;;;;;;16.57;48.71;100754.44;4980684;28;97963;-62
2022/02/03 11:42:37;;;;;;;;;;;;;;;16.53;48.70;100744.44;4980737;27;99526;-56
2022/02/03 11:59:05;;;;;;;;;;;;;;;16.33;49.00;100730.09;4977487;28;98467;-56
2022/02/03 12:05:58;;;;;;;;;;;;;;;16.25;48.96;100733.53;4936628;28;98348;-62
2022/02/03 12:10:47;;;;;;;;;;;;;;;16.23;49.13;100721.31;4976879;27;99161;-56
2022/02/03 12:21:47;;;;;;;;;;;;;;;16.30;49.07;100698.06;4979024;27;97996;-56
2022/02/03 12:24:24;;;;;;;;;;;;;;;16.35;49.22;100687.09;4978807;28;97804;-56
2022/02/03 12:27:03;;;;;;;;;;;;;;;16.40;49.27;100687.00;4979784;27;98466;-56
2022/02/03 12:29:40;;;;;;;;;;;;;;;16.53;49.13;100681.88;4980427;27;98421;-63
2022/02/03 12:40:19;;;;;;;;;;;;;;;16.63;49.39;100668.88;4976969;28;97988;-63
2022/02/03 12:42:52;;;;;;;;;;;;;;;16.64;49.69;100665.03;4980549;27;97931;-61
2022/02/03 12:45:23;;;;;;;;;;;;;;;16.65;49.42;100658.47;4979670;27;97868;-62
2022/02/03 12:47:51;;;;;;;;;;;;;;;16.62;49.64;100663.72;4979530;27;98411;-62
2022/02/03 12:50:28;;;;;;;;;;;;;;;16.59;49.78;100659.72;4979965;27;98572;-57
2022/02/03 12:52:55;;;;;;;;;;;;;;;16.55;49.84;100663.34;4979590;28;99704;-61
2022/02/03 12:55:35;;;;;;;;;;;;;;;16.52;49.92;100648.41;4979931;27;97917;-62
2022/02/03 12:58:14;;;;;;;;;;;;;;;16.50;50.27;100639.75;4979963;27;99361;-63
2022/02/03 13:01:01;;;;;;;;;;;;;;;16.49;50.10;100649.00;4979646;28;98711;-55
2022/02/03 13:03:32;;;;;;;;;;;;;;;16.47;50.10;100639.56;4979798;28;98502;-55
2022/02/03 13:06:03;;;;;;;;;;;;;;;16.45;50.16;100643.38;4977530;28;97948;-62
2022/02/03 13:09:07;;;;;;;;;;;;;;;16.42;50.12;100645.88;4979967;28;98676;-62
2022/02/03 13:11:40;;;;;;;;;;;;;;;16.41;50.34;100638.84;4957377;27;98518;-62
2022/02/03 13:14:20;;;;;;;;;;;;;;;16.40;50.48;100638.03;4980283;27;97950;-56
2022/02/03 13:16:51;;;;;;;;;;;;;;;16.37;50.44;100635.91;4979701;27;98139;-63
2022/02/03 13:27:18;;;;;;;;;;;;;;;16.29;50.74;100620.31;4978866;27;97725;-56
2022/02/03 13:29:56;;;;;;;;;;;;;;;16.27;50.75;100614.38;4979323;27;98151;-62
2022/02/03 13:32:32;;;;;;;;;;;;;;;16.25;50.72;100626.66;4975780;27;98484;-56
2022/02/03 13:37:34;;;;;;;;;;;;;;;16.19;50.80;100617.75;4980367;27;99210;-55
2022/02/03 13:40:08;;;;;;;;;;;;;;;16.17;50.91;100615.34;4980801;27;98496;-62
2022/02/03 13:42:34;;;;;;;;;;;;;;;16.16;51.21;100610.22;4979309;28;99227;-55
2022/02/03 13:45:07;;;;;;;;;;;;;;;16.14;51.09;100610.50;4982570;27;97930;-56
2022/02/03 13:47:36;;;;;;;;;;;;;;;16.13;51.04;100603.47;4979860;27;98098;-56
2022/02/03 13:50:12;;;;;;;;;;;;;;;16.16;51.24;100605.59;4980331;28;98426;-56
2022/02/03 13:52:47;;;;;;;;;;;;;;;16.22;50.99;100600.84;4979659;27;98501;-55
2022/02/03 14:14:59;;;;;;;;;;;;;;;16.57;50.74;100574.84;4971475;28;98923;-56
2022/02/03 14:17:50;;;;;;;;;;;;;;;16.57;50.88;100574.84;4977962;27;98018;-55
2022/02/03 14:28:19;;;;;;;;;;;;;;;16.55;50.93;100554.50;4973356;28;97667;-55
2022/02/03 14:30:48;;;;;;;;;;;;;;;16.54;50.87;100548.22;4977266;27;98447;-62
2022/02/03 14:33:23;;;;;;;;;;;;;;;16.52;51.01;100553.19;4976992;27;98229;-62
2022/02/03 14:35:49;;;;;;;;;;;;;;;16.51;51.07;100548.88;4977521;27;98435;-62
2022/02/03 14:38:24;;;;;;;;;;;;;;;16.49;50.90;100550.28;4975721;28;98031;-54
2022/02/03 14:43:22;;;;;;;;;;;;;;;16.44;50.99;100537.59;4974035;28;98520;-62
2022/02/03 14:45:48;;;;;;;;;;;;;;;16.43;51.01;100547.66;4975050;28;98073;-55
2022/02/03 14:48:15;;;;;;;;;;;;;;;16.41;50.92;100530.81;4976655;28;99132;-62
2022/02/03 14:50:45;;;;;;;;;;;;;;;16.39;51.12;100533.06;4976026;27;97999;-62
2022/02/03 14:53:17;;;;;;;;;;;;;;;16.37;50.97;100524.38;4976368;27;98830;-62
2022/02/03 14:58:39;;;;;;;;;;;;;;;16.34;51.02;100524.19;4932905;28;98410;-62
2022/02/03 15:01:05;;;;;;;;;;;;;;;16.32;51.20;100518.25;4976359;28;98354;-55
2022/02/03 15:03:31;;;;;;;;;;;;;;;16.29;51.19;100519.66;4976446;28;98738;-54
2022/02/03 15:06:04;;;;;;;;;;;;;;;16.27;51.25;100521.06;4976667;27;98620;-55
2022/02/03 15:09:20;;;;;;;;;;;;;;;16.23;51.19;100523.63;4970885;28;97991;-63
2022/02/03 15:11:26;;;;;;;;;;;;;;;16.20;51.37;100519.59;4968200;27;98481;-63
2022/02/03 15:13:52;;;;;;;;;;;;;;;16.17;51.27;100520.19;4974322;28;98677;-55
2022/02/03 15:16:18;;;;;;;;;;;;;;;16.15;51.29;100514.25;4975049;27;125557;-55
2022/02/03 15:18:44;;;;;;;;;;;;;;;16.14;51.40;100511.81;4975862;28;119643;-62
2022/02/03 15:21:10;;;;;;;;;;;;;;;16.11;51.39;100507.81;4975081;28;98125;-59
2022/02/03 15:23:37;;;;;;;;;;;;;;;16.08;51.53;100502.97;4974355;28;98738;-55
2022/02/03 15:26:04;;;;;;;;;;;;;;;16.07;51.58;100503.25;4974757;27;99407;-54
2022/02/03 15:28:30;;;;;;;;;;;;;;;16.05;51.37;100502.78;4975881;27;98846;-56
2022/02/03 15:30:56;;;;;;;;;;;;;;;16.02;51.32;100497.94;4976066;28;98323;-56
2022/02/03 15:33:26;;;;;;;;;;;;;;;16.01;51.39;100490.91;4976028;28;99002;-62
2022/02/03 15:35:56;;;;;;;;;;;;;;;15.99;51.35;100496.63;4976414;27;98784;-55
2022/02/03 15:38:23;;;;;;;;;;;;;;;15.97;51.35;100492.59;4974922;27;98258;-56
2022/02/03 15:40:53;;;;;;;;;;;;;;;15.95;51.65;100487.47;4976104;27;98110;-56
2022/02/03 15:45:51;;;;;;;;;;;;;;;15.91;51.39;100479.09;4971643;27;99194;-62
2022/02/03 15:48:29;;;;;;;;;;;;;;;15.90;51.49;100479.41;4976194;27;98070;-55
2022/02/03 16:01:51;;;;;;;;;;;;;;;15.82;51.64;100471.97;4973632;27;97899;-62
2022/02/03 16:13:23;;;;;;;;;;;;;;;15.78;51.65;100465.53;4973166;28;97874;-62
2022/02/03 16:18:06;;;;;;;;;;;;;;;15.74;51.78;100459.88;4972461;28;98406;-54
2022/02/03 16:20:39;;;;;;;;;;;;;;;15.74;51.48;100456.38;4974543;28;98207;-54
2022/02/03 16:54:51;;;;;;;;;;;;;;;15.66;51.58;100457.88;4972319;28;97783;-63
2022/02/03 16:57:21;;;;;;;;;;;;;;;15.65;51.74;100451.63;4974197;27;97947;-55
2022/02/03 16:59:55;;;;;;;;;;;;;;;15.65;51.78;100454.34;4974424;27;99315;-63
2022/02/03 17:02:23;;;;;;;;;;;;;;;15.66;51.96;100450.53;4974346;28;98276;-63
2022/02/03 17:04:49;;;;;;;;;;;;;;;15.65;52.01;100454.34;4975047;28;97867;-61
2022/02/03 17:07:15;;;;;;;;;;;;;;;15.65;52.07;100451.63;4975008;28;98621;-62
2022/02/03 17:09:41;;;;;;;;;;;;;;;15.65;51.82;100450.84;4973871;28;128945;-56
2022/02/03 17:12:07;;;;;;;;;;;;;;;15.66;51.81;100452.44;4973274;27;118006;-62
2022/02/03 17:14:33;;;;;;;;;;;;;;;15.65;51.83;100450.84;4975158;28;97993;-56
2022/02/03 17:16:59;;;;;;;;;;;;;;;15.65;51.93;100448.91;4974222;27;98286;-62
2022/02/03 17:19:25;;;;;;;;;;;;;;;15.64;51.65;100441.84;4974701;28;98652;-55
2022/02/03 17:21:51;;;;;;;;;;;;;;;15.63;52.15;100436.69;4973371;27;102531;-62
2022/02/03 17:24:17;;;;;;;;;;;;;;;15.64;51.74;100444.56;4972335;28;122502;-62
2022/02/03 17:27:09;;;;;;;;;;;;;;;15.64;51.86;100441.84;4973115;27;128061;-63
2022/02/03 17:32:24;;;;;;;;;;;;;;;15.65;52.07;100439.97;4974007;27;98021;-55
2022/02/03 18:10:22;;;;;;;;;;;;;;;15.59;51.84;100436.50;4962110;28;98103;-63
2022/02/03 18:29:17;;;;;;;;;;;;;;;15.55;51.75;100431.97;4971504;28;103515;-63
2022/02/03 18:31:18;;;;;;;;;;;;;;;15.56;52.00;100436.28;4975277;27;99395;-56
2022/02/03 18:36:33;;;;;;;;;;;;;;;15.55;52.22;100434.69;4975805;27;98195;-56
2022/02/03 18:48:08;;;;;;;;;;;;;;;15.52;52.20;100417.06;4977147;27;97849;-63
2022/02/03 18:50:16;;;;;;;;;;;;;;;15.52;51.69;100422.50;4978828;27;98241;-55
2022/02/03 18:53:10;;;;;;;;;;;;;;;15.51;51.79;100411.94;4963931;28;100316;-55
2022/02/03 18:55:51;;;;;;;;;;;;;;;15.50;52.09;100411.16;4979627;27;98236;-56
2022/02/03 19:01:18;;;;;;;;;;;;;;;15.50;51.94;100399.47;4978106;27;97864;-55
2022/02/03 19:15:23;;;;;;;;;;;;;;;15.47;51.95;100384.59;4976726;27;98244;-55
2022/02/03 19:23:39;;;;;;;;;;;;;;;15.47;52.14;100384.59;4980427;28;98025;-63
2022/02/03 20:01:35;;;;;;;;;;;;;;;15.41;51.98;100348.59;4977699;28;98355;-62
2022/02/03 20:04:17;;;;;;;;;;;;;;;15.41;51.91;100345.06;4980268;28;98268;-55
2022/02/03 20:07:00;;;;;;;;;;;;;;;15.41;51.89;100343.16;4980393;27;98096;-63
2022/02/03 20:11:52;;;;;;;;;;;;;;;15.41;51.81;100343.16;4979132;27;116726;-56
2022/02/03 20:14:20;;;;;;;;;;;;;;;15.41;52.06;100342.34;4980592;28;97971;-56
2022/02/03 20:16:46;;;;;;;;;;;;;;;15.41;51.77;100336.91;4980943;28;97990;-63
2022/02/03 20:19:12;;;;;;;;;;;;;;;15.41;51.90;100337.72;4977122;28;116900;-55
2022/02/03 20:21:40;;;;;;;;;;;;;;;15.42;51.83;100330.38;4980468;28;98458;-63
2022/02/03 20:24:06;;;;;;;;;;;;;;;15.40;52.07;100325.22;4980550;27;98054;-57
2022/02/03 20:26:33;;;;;;;;;;;;;;;15.41;51.85;100329.56;4980755;27;97884;-63
2022/02/03 20:28:59;;;;;;;;;;;;;;;15.41;51.80;100326.06;4979510;28;106478;-63
2022/02/03 20:31:25;;;;;;;;;;;;;;;15.40;52.03;100319.78;4979438;27;128103;-57
2022/02/03 20:33:51;;;;;;;;;;;;;;;15.40;51.76;100317.06;4980299;28;126412;-62
2022/02/03 20:36:17;;;;;;;;;;;;;;;15.41;51.74;100318.72;4980556;27;110193;-63
2022/02/03 20:38:43;;;;;;;;;;;;;;;15.40;51.69;100314.34;4979571;28;128927;-56
2022/02/03 20:41:09;;;;;;;;;;;;;;;15.41;51.81;100312.47;4978906;27;128196;-63
2022/02/03 20:43:35;;;;;;;;;;;;;;;15.40;51.62;100308.94;4978556;28;108897;-63
2022/02/03 20:46:00;;;;;;;;;;;;;;;15.42;51.88;100316.78;4979602;28;123110;-56
2022/02/03 20:48:29;;;;;;;;;;;;;;;15.40;51.74;100308.94;4978760;28;128162;-56
2022/02/03 20:50:56;;;;;;;;;;;;;;;15.41;52.04;100310.56;4979785;27;98366;-56
2022/02/03 20:53:22;;;;;;;;;;;;;;;15.41;51.89;100305.13;4980533;27;98579;-56
2022/02/03 20:55:48;;;;;;;;;;;;;;;15.40;51.96;100297.25;4979759;27;108034;-63
2022/02/03 20:58:17;;;;;;;;;;;;;;;15.41;51.82;100298.91;4979301;27;98613;-62
2022/02/03 21:00:50;;;;;;;;;;;;;;;15.41;51.88;100298.91;4979975;27;98673;-56
2022/02/03 21:03:28;;;;;;;;;;;;;;;15.41;51.99;100294.25;4980306;27;99654;-56
2022/02/03 21:05:54;;;;;;;;;;;;;;;15.41;51.85;100302.41;4980136;27;97945;-63
2022/02/03 21:08:28;;;;;;;;;;;;;;;15.42;51.89;100301.28;4979738;28;101391;-57
2022/02/03 21:10:54;;;;;;;;;;;;;;;15.41;51.89;100294.25;4979243;27;98807;-63
2022/02/03 21:13:20;;;;;;;;;;;;;;;15.41;52.05;100291.56;4979875;28;97905;-56
2022/02/03 21:15:46;;;;;;;;;;;;;;;15.42;51.98;100292.34;4978353;28;123059;-56
2022/02/03 21:18:14;;;;;;;;;;;;;;;15.42;51.63;100295.06;4979213;28;98917;-63
2022/02/03 21:20:40;;;;;;;;;;;;;;;15.41;52.03;100294.25;4979605;27;98611;-63
2022/02/03 21:23:07;;;;;;;;;;;;;;;15.42;51.75;100292.34;4978948;28;98086;-57
2022/02/03 21:26:19;;;;;;;;;;;;;;;15.42;51.83;100293.16;4979671;27;97930;-56
2022/02/03 21:28:26;;;;;;;;;;;;;;;15.41;51.83;100294.25;4973915;27;98851;-56
2022/02/03 21:30:52;;;;;;;;;;;;;;;15.42;51.98;100297.78;4979596;27;98561;-56
2022/02/03 21:33:28;;;;;;;;;;;;;;;15.42;51.97;100290.44;4978884;27;98787;-56
2022/02/03 21:35:57;;;;;;;;;;;;;;;15.43;51.60;100283.88;4980014;27;97789;-63
2022/02/03 21:38:23;;;;;;;;;;;;;;;15.43;51.75;100283.09;4979220;27;98837;-56
2022/02/03 21:40:49;;;;;;;;;;;;;;;15.43;51.87;100291.22;4978690;28;98992;-56
2022/02/03 21:43:15;;;;;;;;;;;;;;;15.42;51.91;100278.78;4978395;28;127902;-56
2022/02/03 21:45:41;;;;;;;;;;;;;;;15.42;51.58;100276.84;4979009;27;97932;-56
2022/02/03 21:48:07;;;;;;;;;;;;;;;15.42;51.99;100274.13;4979069;27;102987;-56
2022/02/03 21:50:39;;;;;;;;;;;;;;;15.43;51.89;100273.03;4978320;28;122982;-56
2022/02/03 21:53:14;;;;;;;;;;;;;;;15.42;51.73;100279.56;4978838;27;97839;-56
2022/02/03 21:55:40;;;;;;;;;;;;;;;15.42;51.57;100267.91;4981314;27;97799;-61
2022/02/03 21:58:06;;;;;;;;;;;;;;;15.43;51.68;100264.88;4981905;28;98128;-56
2022/02/03 22:00:32;;;;;;;;;;;;;;;15.42;51.77;100267.91;4980768;27;127523;-56
2022/02/03 22:02:58;;;;;;;;;;;;;;;15.43;51.47;100261.34;4983719;27;98217;-57
2022/02/03 22:05:24;;;;;;;;;;;;;;;15.42;51.43;100262.47;4981449;27;121784;-56
2022/02/03 22:07:50;;;;;;;;;;;;;;;15.42;51.55;100266.00;4981852;28;128198;-56
2022/02/03 22:10:20;;;;;;;;;;;;;;;15.42;51.69;100259.75;4982283;27;101622;-63
2022/02/03 22:12:47;;;;;;;;;;;;;;;15.43;51.67;100269.50;4981590;27;97946;-62
2022/02/03 22:15:12;;;;;;;;;;;;;;;15.43;51.56;100264.88;4982787;27;97874;-55
2022/02/03 22:17:39;;;;;;;;;;;;;;;15.43;51.71;100262.16;4981942;27;118699;-63
2022/02/03 22:20:10;;;;;;;;;;;;;;;15.42;51.45;100259.75;4982066;27;98538;-63
2022/02/03 22:22:53;;;;;;;;;;;;;;;15.41;51.97;100250.00;4982943;27;98182;-63
2022/02/03 22:25:43;;;;;;;;;;;;;;;15.42;51.47;100249.69;4981946;27;98087;-63
2022/02/03 22:28:36;;;;;;;;;;;;;;;15.43;51.44;100247.78;4982691;28;99148;-63
2022/02/03 22:45:15;;;;;;;;;;;;;;;15.43;51.68;100239.63;4979382;27;97893;-55
2022/02/03 22:49:40;;;;;;;;;;;;;;;15.42;51.46;100238.03;4978587;27;98464;-55
2022/02/03 22:52:06;;;;;;;;;;;;;;;15.42;51.68;100246.19;4981729;27;118266;-62
2022/02/03 22:54:32;;;;;;;;;;;;;;;15.42;51.44;100243.47;4979742;28;97828;-56
2022/02/03 22:56:58;;;;;;;;;;;;;;;15.42;51.81;100244.25;4980313;28;122461;-63
2022/02/03 23:00:03;;;;;;;;;;;;;;;15.41;51.65;100239.94;4980018;28;128243;-63
2022/02/03 23:02:10;;;;;;;;;;;;;;;15.42;51.47;100238.84;4981230;27;99326;-56
2022/02/03 23:04:36;;;;;;;;;;;;;;;15.42;51.37;100249.69;4981019;28;118546;-63
2022/02/03 23:09:54;;;;;;;;;;;;;;;15.43;51.45;100245.06;4978043;27;97950;-63
2022/02/03 23:17:45;;;;;;;;;;;;;;;15.43;51.61;100239.63;4981926;27;98156;-63
2022/02/03 23:20:19;;;;;;;;;;;;;;;15.43;51.53;100236.91;4981168;27;98326;-56